sensor_id;sensor_type;location;lat;lon;timestamp;P1;durP1;ratioP1;P2;durP2;ratioP2
11970;SDS011;6045;42.682;23.294;2024-03-23T00:51:11;20.80;;;10.77;;
11970;SDS011;6045;42.682;23.294;2024-03-23T00:53:38;20.73;;;11.33;;
11970;SDS011;6045;42.682;23.294;2024-03-23T00:56:07;19.67;;;11.60;;
11970;SDS011;6045;42.682;23.294;2024-03-23T00:58:33;17.73;;;10.80;;
11970;SDS011;6045;42.682;23.294;2024-03-23T01:01:00;18.60;;;11.00;;
11970;SDS011;6045;42.682;23.294;2024-03-23T01:03:28;17.23;;;10.40;;
11970;SDS011;6045;42.682;23.294;2024-03-23T01:05:58;20.70;;;10.60;;
11970;SDS011;6045;42.682;23.294;2024-03-23T01:08:26;19.03;;;11.30;;
11970;SDS011;6045;42.682;23.294;2024-03-23T01:10:53;19.93;;;9.90;;
11970;SDS011;6045;42.682;23.294;2024-03-23T01:13:20;18.13;;;9.53;;
11970;SDS011;6045;42.682;23.294;2024-03-23T01:15:48;22.03;;;10.17;;
11970;SDS011;6045;42.682;23.294;2024-03-23T01:18:14;18.80;;;10.50;;
11970;SDS011;6045;42.682;23.294;2024-03-23T01:20:41;17.77;;;9.87;;
11970;SDS011;6045;42.682;23.294;2024-03-23T01:23:07;18.13;;;9.80;;
11970;SDS011;6045;42.682;23.294;2024-03-23T01:25:35;16.67;;;9.80;;
11970;SDS011;6045;42.682;23.294;2024-03-23T01:28:04;17.00;;;9.80;;
11970;SDS011;6045;42.682;23.294;2024-03-23T01:30:32;16.40;;;9.40;;
11970;SDS011;6045;42.682;23.294;2024-03-23T01:32:59;19.10;;;9.10;;
11970;SDS011;6045;42.682;23.294;2024-03-23T01:35:26;17.27;;;8.57;;
11970;SDS011;6045;42.682;23.294;2024-03-23T01:37:52;16.27;;;8.97;;
11970;SDS011;6045;42.682;23.294;2024-03-23T01:40:19;15.87;;;8.63;;
11970;SDS011;6045;42.682;23.294;2024-03-23T01:42:56;17.80;;;9.00;;
11970;SDS011;6045;42.682;23.294;2024-03-23T01:45:23;14.07;;;8.30;;
11970;SDS011;6045;42.682;23.294;2024-03-23T01:47:49;16.27;;;9.57;;
11970;SDS011;6045;42.682;23.294;2024-03-23T01:50:16;18.67;;;8.20;;
11970;SDS011;6045;42.682;23.294;2024-03-23T01:52:42;14.33;;;8.93;;
11970;SDS011;6045;42.682;23.294;2024-03-23T01:55:10;15.20;;;7.97;;
11970;SDS011;6045;42.682;23.294;2024-03-23T01:57:36;16.30;;;9.10;;
11970;SDS011;6045;42.682;23.294;2024-03-23T02:00:05;19.23;;;8.00;;
11970;SDS011;6045;42.682;23.294;2024-03-23T02:02:32;14.93;;;8.97;;
11970;SDS011;6045;42.682;23.294;2024-03-23T02:04:59;15.47;;;8.30;;
11970;SDS011;6045;42.682;23.294;2024-03-23T02:07:25;15.57;;;8.83;;
11970;SDS011;6045;42.682;23.294;2024-03-23T02:09:52;15.33;;;8.17;;
11970;SDS011;6045;42.682;23.294;2024-03-23T02:12:18;12.37;;;8.47;;
11970;SDS011;6045;42.682;23.294;2024-03-23T02:14:46;14.40;;;8.73;;
11970;SDS011;6045;42.682;23.294;2024-03-23T02:17:14;13.43;;;8.17;;
11970;SDS011;6045;42.682;23.294;2024-03-23T02:19:41;15.30;;;8.73;;
11970;SDS011;6045;42.682;23.294;2024-03-23T02:22:06;15.10;;;8.73;;
11970;SDS011;6045;42.682;23.294;2024-03-23T02:24:37;15.80;;;9.43;;
11970;SDS011;6045;42.682;23.294;2024-03-23T02:27:03;17.17;;;9.70;;
11970;SDS011;6045;42.682;23.294;2024-03-23T02:29:30;14.90;;;9.20;;
11970;SDS011;6045;42.682;23.294;2024-03-23T02:31:56;15.73;;;9.60;;
11970;SDS011;6045;42.682;23.294;2024-03-23T02:34:24;15.43;;;8.37;;
11970;SDS011;6045;42.682;23.294;2024-03-23T02:36:50;12.23;;;9.07;;
11970;SDS011;6045;42.682;23.294;2024-03-23T02:39:16;16.50;;;9.57;;
11970;SDS011;6045;42.682;23.294;2024-03-23T02:41:44;15.20;;;9.10;;
11970;SDS011;6045;42.682;23.294;2024-03-23T02:44:11;13.20;;;9.00;;
11970;SDS011;6045;42.682;23.294;2024-03-23T02:46:37;14.87;;;8.70;;
11970;SDS011;6045;42.682;23.294;2024-03-23T02:49:04;16.43;;;9.57;;
11970;SDS011;6045;42.682;23.294;2024-03-23T02:51:30;15.30;;;9.60;;
11970;SDS011;6045;42.682;23.294;2024-03-23T02:53:57;17.10;;;9.73;;
11970;SDS011;6045;42.682;23.294;2024-03-23T02:56:23;20.23;;;10.27;;
11970;SDS011;6045;42.682;23.294;2024-03-23T02:58:51;17.47;;;10.23;;
11970;SDS011;6045;42.682;23.294;2024-03-23T03:01:17;23.03;;;11.00;;
11970;SDS011;6045;42.682;23.294;2024-03-23T03:03:44;16.83;;;10.30;;
11970;SDS011;6045;42.682;23.294;2024-03-23T03:06:10;14.33;;;9.40;;
11970;SDS011;6045;42.682;23.294;2024-03-23T03:08:37;14.90;;;8.67;;
11970;SDS011;6045;42.682;23.294;2024-03-23T03:11:03;16.40;;;9.80;;
11970;SDS011;6045;42.682;23.294;2024-03-23T03:13:30;17.87;;;9.60;;
11970;SDS011;6045;42.682;23.294;2024-03-23T03:15:57;17.43;;;9.07;;
11970;SDS011;6045;42.682;23.294;2024-03-23T03:18:24;15.97;;;9.87;;
11970;SDS011;6045;42.682;23.294;2024-03-23T03:20:50;14.80;;;10.20;;
11970;SDS011;6045;42.682;23.294;2024-03-23T03:23:20;18.23;;;9.97;;
11970;SDS011;6045;42.682;23.294;2024-03-23T03:25:46;12.97;;;9.60;;
11970;SDS011;6045;42.682;23.294;2024-03-23T03:28:13;16.80;;;9.57;;
11970;SDS011;6045;42.682;23.294;2024-03-23T03:30:39;15.27;;;9.70;;
11970;SDS011;6045;42.682;23.294;2024-03-23T03:33:08;11.87;;;9.03;;
11970;SDS011;6045;42.682;23.294;2024-03-23T03:35:33;18.60;;;10.13;;
11970;SDS011;6045;42.682;23.294;2024-03-23T03:38:00;15.70;;;9.23;;
11970;SDS011;6045;42.682;23.294;2024-03-23T03:40:26;12.23;;;8.57;;
11970;SDS011;6045;42.682;23.294;2024-03-23T03:42:53;12.37;;;8.77;;
11970;SDS011;6045;42.682;23.294;2024-03-23T03:45:19;15.80;;;9.53;;
11970;SDS011;6045;42.682;23.294;2024-03-23T03:47:46;13.13;;;7.93;;
11970;SDS011;6045;42.682;23.294;2024-03-23T03:50:13;10.93;;;7.67;;
11970;SDS011;6045;42.682;23.294;2024-03-23T03:52:40;14.13;;;8.47;;
11970;SDS011;6045;42.682;23.294;2024-03-23T03:55:13;15.23;;;8.13;;
11970;SDS011;6045;42.682;23.294;2024-03-23T03:57:40;14.30;;;8.50;;
11970;SDS011;6045;42.682;23.294;2024-03-23T04:00:08;12.10;;;8.10;;
11970;SDS011;6045;42.682;23.294;2024-03-23T04:02:36;12.50;;;7.73;;
11970;SDS011;6045;42.682;23.294;2024-03-23T04:05:03;15.83;;;8.40;;
11970;SDS011;6045;42.682;23.294;2024-03-23T04:07:31;11.97;;;7.60;;
11970;SDS011;6045;42.682;23.294;2024-03-23T04:09:58;12.83;;;8.30;;
11970;SDS011;6045;42.682;23.294;2024-03-23T04:12:24;17.03;;;8.57;;
11970;SDS011;6045;42.682;23.294;2024-03-23T04:14:51;12.87;;;7.73;;
11970;SDS011;6045;42.682;23.294;2024-03-23T04:17:16;13.13;;;8.33;;
11970;SDS011;6045;42.682;23.294;2024-03-23T04:19:44;13.90;;;8.47;;
11970;SDS011;6045;42.682;23.294;2024-03-23T04:22:10;13.10;;;8.53;;
11970;SDS011;6045;42.682;23.294;2024-03-23T04:24:38;15.07;;;8.63;;
11970;SDS011;6045;42.682;23.294;2024-03-23T04:27:04;14.63;;;8.30;;
11970;SDS011;6045;42.682;23.294;2024-03-23T04:29:31;16.63;;;9.20;;
11970;SDS011;6045;42.682;23.294;2024-03-23T04:31:57;14.17;;;8.47;;
11970;SDS011;6045;42.682;23.294;2024-03-23T04:34:24;17.03;;;8.73;;
11970;SDS011;6045;42.682;23.294;2024-03-23T04:36:50;17.40;;;9.10;;
11970;SDS011;6045;42.682;23.294;2024-03-23T04:39:17;14.60;;;9.23;;
11970;SDS011;6045;42.682;23.294;2024-03-23T04:41:46;12.63;;;8.27;;
11970;SDS011;6045;42.682;23.294;2024-03-23T04:44:13;13.93;;;8.30;;
11970;SDS011;6045;42.682;23.294;2024-03-23T04:46:40;14.53;;;8.23;;
11970;SDS011;6045;42.682;23.294;2024-03-23T04:49:06;12.47;;;8.13;;
11970;SDS011;6045;42.682;23.294;2024-03-23T04:51:35;13.07;;;7.93;;
11970;SDS011;6045;42.682;23.294;2024-03-23T04:54:03;11.47;;;7.80;;
11970;SDS011;6045;42.682;23.294;2024-03-23T04:56:31;19.07;;;8.53;;
11970;SDS011;6045;42.682;23.294;2024-03-23T04:58:58;13.47;;;8.40;;
11970;SDS011;6045;42.682;23.294;2024-03-23T05:01:26;14.30;;;7.53;;
11970;SDS011;6045;42.682;23.294;2024-03-23T05:03:52;16.73;;;8.17;;
11970;SDS011;6045;42.682;23.294;2024-03-23T05:06:19;16.47;;;8.60;;
11970;SDS011;6045;42.682;23.294;2024-03-23T05:08:45;13.97;;;8.57;;
11970;SDS011;6045;42.682;23.294;2024-03-23T05:11:12;12.80;;;8.10;;
11970;SDS011;6045;42.682;23.294;2024-03-23T05:13:38;14.93;;;8.40;;
11970;SDS011;6045;42.682;23.294;2024-03-23T05:16:07;15.73;;;8.63;;
11970;SDS011;6045;42.682;23.294;2024-03-23T05:18:33;15.33;;;8.13;;
11970;SDS011;6045;42.682;23.294;2024-03-23T05:21:00;13.63;;;6.73;;
11970;SDS011;6045;42.682;23.294;2024-03-23T05:23:27;17.17;;;9.37;;
11970;SDS011;6045;42.682;23.294;2024-03-23T05:25:55;14.57;;;8.47;;
11970;SDS011;6045;42.682;23.294;2024-03-23T05:28:21;15.27;;;8.77;;
11970;SDS011;6045;42.682;23.294;2024-03-23T05:30:50;14.77;;;8.50;;
11970;SDS011;6045;42.682;23.294;2024-03-23T05:33:17;11.40;;;7.47;;
11970;SDS011;6045;42.682;23.294;2024-03-23T05:35:44;13.90;;;8.00;;
11970;SDS011;6045;42.682;23.294;2024-03-23T05:38:11;10.73;;;7.57;;
11970;SDS011;6045;42.682;23.294;2024-03-23T05:40:37;13.50;;;8.00;;
11970;SDS011;6045;42.682;23.294;2024-03-23T05:43:05;11.63;;;7.33;;
11970;SDS011;6045;42.682;23.294;2024-03-23T05:45:32;11.53;;;7.87;;
11970;SDS011;6045;42.682;23.294;2024-03-23T05:47:58;11.57;;;8.03;;
11970;SDS011;6045;42.682;23.294;2024-03-23T05:50:26;11.47;;;7.37;;
11970;SDS011;6045;42.682;23.294;2024-03-23T05:52:52;14.20;;;8.17;;
11970;SDS011;6045;42.682;23.294;2024-03-23T05:55:19;10.30;;;7.57;;
11970;SDS011;6045;42.682;23.294;2024-03-23T05:57:45;10.93;;;7.80;;
11970;SDS011;6045;42.682;23.294;2024-03-23T06:00:12;14.70;;;8.30;;
11970;SDS011;6045;42.682;23.294;2024-03-23T06:02:41;13.67;;;8.23;;
11970;SDS011;6045;42.682;23.294;2024-03-23T06:05:09;13.73;;;7.50;;
11970;SDS011;6045;42.682;23.294;2024-03-23T06:07:37;12.23;;;7.63;;
11970;SDS011;6045;42.682;23.294;2024-03-23T06:10:04;12.20;;;8.23;;
11970;SDS011;6045;42.682;23.294;2024-03-23T06:12:31;14.90;;;8.60;;
11970;SDS011;6045;42.682;23.294;2024-03-23T06:14:57;10.90;;;8.00;;
11970;SDS011;6045;42.682;23.294;2024-03-23T06:17:23;13.60;;;7.80;;
11970;SDS011;6045;42.682;23.294;2024-03-23T06:19:50;12.77;;;7.40;;
11970;SDS011;6045;42.682;23.294;2024-03-23T06:22:16;12.03;;;7.93;;
11970;SDS011;6045;42.682;23.294;2024-03-23T06:24:45;12.77;;;8.37;;
11970;SDS011;6045;42.682;23.294;2024-03-23T06:27:11;12.77;;;8.37;;
11970;SDS011;6045;42.682;23.294;2024-03-23T06:29:38;14.37;;;8.50;;
11970;SDS011;6045;42.682;23.294;2024-03-23T06:32:04;12.17;;;7.93;;
11970;SDS011;6045;42.682;23.294;2024-03-23T06:34:31;17.27;;;8.37;;
11970;SDS011;6045;42.682;23.294;2024-03-23T06:36:57;12.33;;;7.53;;
11970;SDS011;6045;42.682;23.294;2024-03-23T06:39:23;15.30;;;8.70;;
11970;SDS011;6045;42.682;23.294;2024-03-23T06:41:54;12.60;;;7.53;;
11970;SDS011;6045;42.682;23.294;2024-03-23T06:44:21;13.73;;;8.07;;
11970;SDS011;6045;42.682;23.294;2024-03-23T06:46:47;16.87;;;9.70;;
11970;SDS011;6045;42.682;23.294;2024-03-23T06:49:14;11.60;;;8.13;;
11970;SDS011;6045;42.682;23.294;2024-03-23T06:51:40;15.47;;;8.23;;
11970;SDS011;6045;42.682;23.294;2024-03-23T06:54:08;12.83;;;8.30;;
11970;SDS011;6045;42.682;23.294;2024-03-23T06:56:33;12.85;;;8.20;;
11970;SDS011;6045;42.682;23.294;2024-03-23T06:59:02;13.00;;;8.67;;
11970;SDS011;6045;42.682;23.294;2024-03-23T07:01:28;13.23;;;8.70;;
11970;SDS011;6045;42.682;23.294;2024-03-23T07:03:55;15.40;;;8.40;;
11970;SDS011;6045;42.682;23.294;2024-03-23T07:06:21;14.27;;;8.95;;
11970;SDS011;6045;42.682;23.294;2024-03-23T07:08:48;16.03;;;8.47;;
11970;SDS011;6045;42.682;23.294;2024-03-23T07:11:18;14.37;;;8.70;;
11970;SDS011;6045;42.682;23.294;2024-03-23T07:13:45;10.53;;;7.50;;
11970;SDS011;6045;42.682;23.294;2024-03-23T07:16:15;13.13;;;8.13;;
11970;SDS011;6045;42.682;23.294;2024-03-23T07:18:43;12.43;;;8.35;;
11970;SDS011;6045;42.682;23.294;2024-03-23T07:21:09;14.40;;;7.65;;
11970;SDS011;6045;42.682;23.294;2024-03-23T07:23:36;13.52;;;9.77;;
11970;SDS011;6045;42.682;23.294;2024-03-23T07:26:03;15.77;;;9.10;;
11970;SDS011;6045;42.682;23.294;2024-03-23T07:28:31;14.85;;;8.98;;
11970;SDS011;6045;42.682;23.294;2024-03-23T07:31:01;19.65;;;8.77;;
11970;SDS011;6045;42.682;23.294;2024-03-23T07:33:31;13.88;;;9.10;;
11970;SDS011;6045;42.682;23.294;2024-03-23T07:35:57;13.15;;;9.13;;
11970;SDS011;6045;42.682;23.294;2024-03-23T07:38:26;16.23;;;8.57;;
11970;SDS011;6045;42.682;23.294;2024-03-23T07:40:52;13.80;;;7.68;;
11970;SDS011;6045;42.682;23.294;2024-03-23T07:43:21;13.80;;;8.38;;
11970;SDS011;6045;42.682;23.294;2024-03-23T07:45:51;13.25;;;8.75;;
11970;SDS011;6045;42.682;23.294;2024-03-23T07:48:18;13.30;;;8.40;;
11970;SDS011;6045;42.682;23.294;2024-03-23T07:50:54;14.82;;;9.10;;
11970;SDS011;6045;42.682;23.294;2024-03-23T07:53:24;11.40;;;8.80;;
11970;SDS011;6045;42.682;23.294;2024-03-23T07:55:59;12.30;;;8.82;;
11970;SDS011;6045;42.682;23.294;2024-03-23T07:58:27;11.95;;;7.13;;
11970;SDS011;6045;42.682;23.294;2024-03-23T08:00:54;14.55;;;7.63;;
11970;SDS011;6045;42.682;23.294;2024-03-23T08:03:21;12.63;;;8.45;;
11970;SDS011;6045;42.682;23.294;2024-03-23T08:05:47;13.00;;;9.00;;
11970;SDS011;6045;42.682;23.294;2024-03-23T08:08:16;11.63;;;8.98;;
11970;SDS011;6045;42.682;23.294;2024-03-23T08:10:48;14.13;;;8.80;;
11970;SDS011;6045;42.682;23.294;2024-03-23T08:13:15;12.23;;;8.40;;
11970;SDS011;6045;42.682;23.294;2024-03-23T08:15:42;17.27;;;8.38;;
11970;SDS011;6045;42.682;23.294;2024-03-23T08:18:10;13.90;;;7.95;;
11970;SDS011;6045;42.682;23.294;2024-03-23T08:20:37;14.70;;;9.13;;
11970;SDS011;6045;42.682;23.294;2024-03-23T08:23:04;12.70;;;7.97;;
11970;SDS011;6045;42.682;23.294;2024-03-23T08:25:33;13.52;;;9.05;;
11970;SDS011;6045;42.682;23.294;2024-03-23T08:28:00;12.88;;;8.70;;
11970;SDS011;6045;42.682;23.294;2024-03-23T08:30:29;12.25;;;8.77;;
11970;SDS011;6045;42.682;23.294;2024-03-23T08:32:56;14.52;;;9.10;;
11970;SDS011;6045;42.682;23.294;2024-03-23T08:35:22;14.27;;;9.48;;
11970;SDS011;6045;42.682;23.294;2024-03-23T08:37:49;12.32;;;8.77;;
11970;SDS011;6045;42.682;23.294;2024-03-23T08:40:15;12.02;;;8.45;;
11970;SDS011;6045;42.682;23.294;2024-03-23T08:42:43;13.27;;;8.73;;
11970;SDS011;6045;42.682;23.294;2024-03-23T08:45:09;12.90;;;8.80;;
11970;SDS011;6045;42.682;23.294;2024-03-23T08:47:36;14.98;;;8.60;;
11970;SDS011;6045;42.682;23.294;2024-03-23T08:50:02;15.65;;;8.55;;
11970;SDS011;6045;42.682;23.294;2024-03-23T08:52:29;12.32;;;8.07;;
11970;SDS011;6045;42.682;23.294;2024-03-23T08:54:55;10.43;;;8.30;;
11970;SDS011;6045;42.682;23.294;2024-03-23T08:57:24;12.35;;;8.02;;
11970;SDS011;6045;42.682;23.294;2024-03-23T08:59:52;12.52;;;8.38;;
11970;SDS011;6045;42.682;23.294;2024-03-23T09:02:19;14.55;;;8.57;;
11970;SDS011;6045;42.682;23.294;2024-03-23T09:04:44;10.45;;;8.55;;
11970;SDS011;6045;42.682;23.294;2024-03-23T09:07:11;13.73;;;8.45;;
11970;SDS011;6045;42.682;23.294;2024-03-23T09:09:38;12.65;;;9.32;;
11970;SDS011;6045;42.682;23.294;2024-03-23T09:12:05;14.48;;;9.60;;
11970;SDS011;6045;42.682;23.294;2024-03-23T09:14:31;13.38;;;9.23;;
11970;SDS011;6045;42.682;23.294;2024-03-23T09:17:00;14.48;;;8.65;;
11970;SDS011;6045;42.682;23.294;2024-03-23T09:19:26;12.25;;;8.70;;
11970;SDS011;6045;42.682;23.294;2024-03-23T09:21:55;14.20;;;9.20;;
11970;SDS011;6045;42.682;23.294;2024-03-23T09:24:21;11.52;;;8.52;;
11970;SDS011;6045;42.682;23.294;2024-03-23T09:26:48;14.05;;;9.15;;
11970;SDS011;6045;42.682;23.294;2024-03-23T09:29:14;11.00;;;8.73;;
11970;SDS011;6045;42.682;23.294;2024-03-23T09:31:40;11.70;;;8.82;;
11970;SDS011;6045;42.682;23.294;2024-03-23T09:34:09;13.05;;;8.57;;
11970;SDS011;6045;42.682;23.294;2024-03-23T09:36:35;12.50;;;8.80;;
11970;SDS011;6045;42.682;23.294;2024-03-23T09:39:02;13.68;;;9.07;;
11970;SDS011;6045;42.682;23.294;2024-03-23T09:41:29;12.20;;;8.15;;
11970;SDS011;6045;42.682;23.294;2024-03-23T09:43:55;15.80;;;8.88;;
11970;SDS011;6045;42.682;23.294;2024-03-23T09:46:21;13.43;;;9.30;;
11970;SDS011;6045;42.682;23.294;2024-03-23T09:48:49;13.27;;;8.73;;
11970;SDS011;6045;42.682;23.294;2024-03-23T09:51:16;11.13;;;8.43;;
11970;SDS011;6045;42.682;23.294;2024-03-23T09:53:43;9.40;;;7.68;;
11970;SDS011;6045;42.682;23.294;2024-03-23T09:56:09;12.10;;;8.20;;
11970;SDS011;6045;42.682;23.294;2024-03-23T09:58:36;11.00;;;7.97;;
11970;SDS011;6045;42.682;23.294;2024-03-23T10:01:02;15.45;;;8.43;;
11970;SDS011;6045;42.682;23.294;2024-03-23T10:03:30;11.40;;;8.55;;
11970;SDS011;6045;42.682;23.294;2024-03-23T10:06:02;12.13;;;7.95;;
11970;SDS011;6045;42.682;23.294;2024-03-23T10:08:31;13.23;;;7.93;;
11970;SDS011;6045;42.682;23.294;2024-03-23T10:11:11;14.40;;;8.43;;
11970;SDS011;6045;42.682;23.294;2024-03-23T10:13:41;13.30;;;7.80;;
11970;SDS011;6045;42.682;23.294;2024-03-23T10:16:07;9.73;;;7.00;;
11970;SDS011;6045;42.682;23.294;2024-03-23T10:18:37;12.10;;;7.97;;
11970;SDS011;6045;42.682;23.294;2024-03-23T10:21:06;10.23;;;8.07;;
11970;SDS011;6045;42.682;23.294;2024-03-23T10:23:37;10.57;;;7.60;;
11970;SDS011;6045;42.682;23.294;2024-03-23T10:26:14;14.82;;;8.00;;
11970;SDS011;6045;42.682;23.294;2024-03-23T10:28:52;9.70;;;7.20;;
11970;SDS011;6045;42.682;23.294;2024-03-23T10:31:19;13.02;;;7.57;;
11970;SDS011;6045;42.682;23.294;2024-03-23T10:33:47;11.77;;;7.03;;
11970;SDS011;6045;42.682;23.294;2024-03-23T10:36:13;10.00;;;6.82;;
11970;SDS011;6045;42.682;23.294;2024-03-23T10:38:42;10.65;;;7.13;;
11970;SDS011;6045;42.682;23.294;2024-03-23T10:41:10;9.48;;;7.03;;
11970;SDS011;6045;42.682;23.294;2024-03-23T10:43:37;7.70;;;5.97;;
11970;SDS011;6045;42.682;23.294;2024-03-23T10:46:04;8.82;;;7.60;;
11970;SDS011;6045;42.682;23.294;2024-03-23T10:48:33;12.27;;;7.82;;
11970;SDS011;6045;42.682;23.294;2024-03-23T10:50:59;9.23;;;7.32;;
11970;SDS011;6045;42.682;23.294;2024-03-23T10:53:26;9.27;;;6.65;;
11970;SDS011;6045;42.682;23.294;2024-03-23T10:55:55;14.55;;;7.72;;
11970;SDS011;6045;42.682;23.294;2024-03-23T10:58:23;12.30;;;8.13;;
11970;SDS011;6045;42.682;23.294;2024-03-23T11:00:53;11.98;;;7.68;;
11970;SDS011;6045;42.682;23.294;2024-03-23T11:03:29;8.60;;;6.57;;
11970;SDS011;6045;42.682;23.294;2024-03-23T11:05:56;9.27;;;7.25;;
11970;SDS011;6045;42.682;23.294;2024-03-23T11:08:30;12.88;;;7.43;;
11970;SDS011;6045;42.682;23.294;2024-03-23T11:13:51;11.93;;;6.50;;
11970;SDS011;6045;42.682;23.294;2024-03-23T11:16:21;12.18;;;7.05;;
11970;SDS011;6045;42.682;23.294;2024-03-23T11:18:48;10.27;;;6.78;;
11970;SDS011;6045;42.682;23.294;2024-03-23T11:24:18;8.25;;;6.50;;
11970;SDS011;6045;42.682;23.294;2024-03-23T11:26:46;9.00;;;6.78;;
11970;SDS011;6045;42.682;23.294;2024-03-23T11:29:13;11.95;;;7.05;;
11970;SDS011;6045;42.682;23.294;2024-03-23T11:31:45;8.82;;;6.95;;
11970;SDS011;6045;42.682;23.294;2024-03-23T11:34:11;11.02;;;6.30;;
11970;SDS011;6045;42.682;23.294;2024-03-23T11:36:38;9.35;;;6.03;;
11970;SDS011;6045;42.682;23.294;2024-03-23T11:39:11;7.70;;;5.40;;
11970;SDS011;6045;42.682;23.294;2024-03-23T11:41:46;8.80;;;6.15;;
11970;SDS011;6045;42.682;23.294;2024-03-23T11:44:17;8.85;;;5.75;;
11970;SDS011;6045;42.682;23.294;2024-03-23T11:46:45;8.43;;;5.90;;
11970;SDS011;6045;42.682;23.294;2024-03-23T11:49:19;9.85;;;6.45;;
11970;SDS011;6045;42.682;23.294;2024-03-23T11:51:48;7.47;;;5.95;;
11970;SDS011;6045;42.682;23.294;2024-03-23T11:54:14;7.57;;;5.80;;
11970;SDS011;6045;42.682;23.294;2024-03-23T11:56:53;10.55;;;6.47;;
11970;SDS011;6045;42.682;23.294;2024-03-23T11:59:31;8.85;;;6.30;;
11970;SDS011;6045;42.682;23.294;2024-03-23T12:01:58;8.52;;;6.47;;
11970;SDS011;6045;42.682;23.294;2024-03-23T12:04:25;6.75;;;5.50;;
11970;SDS011;6045;42.682;23.294;2024-03-23T12:09:34;11.48;;;5.90;;
11970;SDS011;6045;42.682;23.294;2024-03-23T12:12:05;9.88;;;5.30;;
11970;SDS011;6045;42.682;23.294;2024-03-23T12:14:34;7.70;;;4.93;;
11970;SDS011;6045;42.682;23.294;2024-03-23T12:17:07;7.43;;;4.93;;
11970;SDS011;6045;42.682;23.294;2024-03-23T12:19:34;8.10;;;4.20;;
11970;SDS011;6045;42.682;23.294;2024-03-23T12:22:02;8.02;;;3.67;;
11970;SDS011;6045;42.682;23.294;2024-03-23T12:24:29;3.70;;;2.90;;
11970;SDS011;6045;42.682;23.294;2024-03-23T12:26:59;3.65;;;2.40;;
11970;SDS011;6045;42.682;23.294;2024-03-23T12:29:26;2.55;;;2.05;;
11970;SDS011;6045;42.682;23.294;2024-03-23T12:31:55;1.98;;;1.42;;
11970;SDS011;6045;42.682;23.294;2024-03-23T12:34:21;2.55;;;1.63;;
11970;SDS011;6045;42.682;23.294;2024-03-23T12:36:48;2.95;;;1.80;;
11970;SDS011;6045;42.682;23.294;2024-03-23T12:39:14;5.10;;;1.30;;
11970;SDS011;6045;42.682;23.294;2024-03-23T12:41:41;2.10;;;1.70;;
11970;SDS011;6045;42.682;23.294;2024-03-23T12:44:06;2.67;;;1.42;;
11970;SDS011;6045;42.682;23.294;2024-03-23T12:46:36;2.53;;;1.60;;
11970;SDS011;6045;42.682;23.294;2024-03-23T12:49:04;2.80;;;1.50;;
11970;SDS011;6045;42.682;23.294;2024-03-23T12:51:31;1.75;;;1.30;;
11970;SDS011;6045;42.682;23.294;2024-03-23T12:53:57;2.45;;;1.25;;
11970;SDS011;6045;42.682;23.294;2024-03-23T12:56:24;1.27;;;0.88;;
11970;SDS011;6045;42.682;23.294;2024-03-23T12:58:50;1.20;;;1.10;;
11970;SDS011;6045;42.682;23.294;2024-03-23T13:01:19;1.70;;;1.25;;
11970;SDS011;6045;42.682;23.294;2024-03-23T13:03:46;1.73;;;1.35;;
11970;SDS011;6045;42.682;23.294;2024-03-23T13:06:14;2.05;;;1.73;;
11970;SDS011;6045;42.682;23.294;2024-03-23T13:08:40;2.50;;;1.30;;
11970;SDS011;6045;42.682;23.294;2024-03-23T13:11:08;2.05;;;1.27;;
11970;SDS011;6045;42.682;23.294;2024-03-23T13:13:35;2.22;;;1.50;;
11970;SDS011;6045;42.682;23.294;2024-03-23T13:16:02;2.10;;;1.58;;
11970;SDS011;6045;42.682;23.294;2024-03-23T13:18:29;2.67;;;1.60;;
11970;SDS011;6045;42.682;23.294;2024-03-23T13:20:56;1.98;;;1.40;;
11970;SDS011;6045;42.682;23.294;2024-03-23T13:23:24;2.05;;;1.67;;
11970;SDS011;6045;42.682;23.294;2024-03-23T13:25:51;2.97;;;1.52;;
11970;SDS011;6045;42.682;23.294;2024-03-23T13:28:18;5.13;;;1.60;;
11970;SDS011;6045;42.682;23.294;2024-03-23T13:30:51;3.53;;;1.30;;
11970;SDS011;6045;42.682;23.294;2024-03-23T13:33:17;2.65;;;1.58;;
11970;SDS011;6045;42.682;23.294;2024-03-23T13:35:51;1.73;;;1.55;;
11970;SDS011;6045;42.682;23.294;2024-03-23T13:38:17;2.60;;;1.40;;
11970;SDS011;6045;42.682;23.294;2024-03-23T13:40:55;2.85;;;1.40;;
11970;SDS011;6045;42.682;23.294;2024-03-23T13:43:21;1.70;;;1.50;;
11970;SDS011;6045;42.682;23.294;2024-03-23T13:45:50;4.22;;;1.45;;
11970;SDS011;6045;42.682;23.294;2024-03-23T13:48:18;3.30;;;1.67;;
11970;SDS011;6045;42.682;23.294;2024-03-23T13:50:46;2.08;;;1.67;;
11970;SDS011;6045;42.682;23.294;2024-03-23T13:53:13;1.60;;;1.50;;
11970;SDS011;6045;42.682;23.294;2024-03-23T13:55:45;1.90;;;1.80;;
11970;SDS011;6045;42.682;23.294;2024-03-23T13:58:13;2.45;;;1.67;;
11970;SDS011;6045;42.682;23.294;2024-03-23T14:00:40;2.13;;;1.60;;
11970;SDS011;6045;42.682;23.294;2024-03-23T14:03:08;2.60;;;1.70;;
11970;SDS011;6045;42.682;23.294;2024-03-23T14:05:34;2.28;;;1.80;;
11970;SDS011;6045;42.682;23.294;2024-03-23T14:08:03;3.17;;;1.88;;
11970;SDS011;6045;42.682;23.294;2024-03-23T14:10:31;2.70;;;1.80;;
11970;SDS011;6045;42.682;23.294;2024-03-23T14:12:57;2.67;;;1.83;;
11970;SDS011;6045;42.682;23.294;2024-03-23T14:15:26;2.22;;;1.80;;
11970;SDS011;6045;42.682;23.294;2024-03-23T14:17:52;2.45;;;1.77;;
11970;SDS011;6045;42.682;23.294;2024-03-23T14:20:19;4.50;;;2.20;;
11970;SDS011;6045;42.682;23.294;2024-03-23T14:22:45;2.38;;;1.73;;
11970;SDS011;6045;42.682;23.294;2024-03-23T14:25:12;3.05;;;2.13;;
11970;SDS011;6045;42.682;23.294;2024-03-23T14:27:38;4.28;;;2.10;;
11970;SDS011;6045;42.682;23.294;2024-03-23T14:30:05;3.78;;;2.22;;
11970;SDS011;6045;42.682;23.294;2024-03-23T14:32:33;3.08;;;2.30;;
11970;SDS011;6045;42.682;23.294;2024-03-23T14:35:01;6.28;;;2.15;;
11970;SDS011;6045;42.682;23.294;2024-03-23T14:37:27;5.00;;;2.30;;
11970;SDS011;6045;42.682;23.294;2024-03-23T14:39:55;5.40;;;2.15;;
11970;SDS011;6045;42.682;23.294;2024-03-23T14:42:21;3.10;;;2.15;;
11970;SDS011;6045;42.682;23.294;2024-03-23T14:44:49;3.05;;;2.17;;
11970;SDS011;6045;42.682;23.294;2024-03-23T14:47:14;2.40;;;2.00;;
11970;SDS011;6045;42.682;23.294;2024-03-23T14:49:44;2.92;;;2.08;;
11970;SDS011;6045;42.682;23.294;2024-03-23T14:52:12;2.40;;;2.13;;
11970;SDS011;6045;42.682;23.294;2024-03-23T14:54:39;3.03;;;2.38;;
11970;SDS011;6045;42.682;23.294;2024-03-23T14:57:05;3.75;;;2.28;;
11970;SDS011;6045;42.682;23.294;2024-03-23T14:59:32;4.13;;;2.58;;
11970;SDS011;6045;42.682;23.294;2024-03-23T15:01:58;4.03;;;2.95;;
11970;SDS011;6045;42.682;23.294;2024-03-23T15:04:25;3.83;;;2.30;;
11970;SDS011;6045;42.682;23.294;2024-03-23T15:06:53;2.80;;;2.50;;
11970;SDS011;6045;42.682;23.294;2024-03-23T15:09:19;4.05;;;2.60;;
11970;SDS011;6045;42.682;23.294;2024-03-23T15:11:45;5.68;;;2.90;;
11970;SDS011;6045;42.682;23.294;2024-03-23T15:14:12;3.42;;;2.47;;
11970;SDS011;6045;42.682;23.294;2024-03-23T15:16:38;4.07;;;2.83;;
11970;SDS011;6045;42.682;23.294;2024-03-23T15:19:07;4.97;;;2.60;;
11970;SDS011;6045;42.682;23.294;2024-03-23T15:21:33;3.95;;;2.70;;
11970;SDS011;6045;42.682;23.294;2024-03-23T15:24:02;3.20;;;2.83;;
11970;SDS011;6045;42.682;23.294;2024-03-23T15:26:28;4.50;;;2.50;;
11970;SDS011;6045;42.682;23.294;2024-03-23T15:28:54;3.50;;;2.72;;
11970;SDS011;6045;42.682;23.294;2024-03-23T15:31:35;3.22;;;2.55;;
11970;SDS011;6045;42.682;23.294;2024-03-23T15:34:02;4.32;;;2.63;;
11970;SDS011;6045;42.682;23.294;2024-03-23T15:36:29;5.47;;;2.67;;
11970;SDS011;6045;42.682;23.294;2024-03-23T15:38:56;3.22;;;2.30;;